首页
METAR-TAF:

METAR-TAF

机场 :

諾里奇, 英格兰

纬度: 52-38N, 经度: 001-18E, 海拔: 14米

当前天气观测

该预报发布于19分钟前的15:50 UTC
风速13节,风向西南,在南转西南西之间变化
温度 9°C
湿度 66%
气压 994 hPa
能见度10公里或以上
散云层高于4300英尺

METAR: EGSH 081550Z 23013KT 200V260 9999 SCT043 09/03 Q0994 NOSIG

时间: 16:09 (16:09 UTC)

预报

该预报发布于2小时和15分钟前的13:54 UTC
预报有效从08日的 15点(UTC)到 08日的 24点(UTC)
风速15节,风向西南
能见度10公里或以上
散云层高于2500英尺
短暂存在
从 08日的 15点(UTC)到 08日的 24点(UTC)
风速18节,风向西转西南,有时为30节阵风
几率 30% :
短暂存在
从 08日的 15点(UTC)到 08日的 18点(UTC)
能見度: 7000
阵雨

TAF: EGSH 081354Z 0815/0824 23015KT 9999 SCT025 TEMPO 0815/0824 24018G30KT PROB30 TEMPO 0815/0818 7000 SHRA

超过4000个机场的气象观测和天气预报(METAR&TAF报告)。

可查询的气象台以黄色和红色小点在地图上表示。

将鼠标移到小点上方,可查看气象台名称。

然后点击查看天气观测和预报。

如需切换地图:点击带黑十字的绿色按钮放大地图;点击带横线的绿色按钮缩小地图;或者点击绿色箭头查看邻近地区的地图。


METAR-TAF: